Map

Track Data

SID SEASON NUMBER BASIN SUBBASIN NAME ISO_TIME NATURE LAT LON WMO_WIND WMO_PRES WMO_AGENCY TRACK_TYPE DIST2LAND LANDFALL IFLAG USA_AGENCY USA_ATCF_ID USA_LAT USA_LON USA_RECORD USA_STATUS USA_WIND USA_PRES USA_SSHS USA_R34_NE USA_R34_SE USA_R34_SW USA_R34_NW USA_R50_NE USA_R50_SE USA_R50_SW USA_R50_NW USA_R64_NE USA_R64_SE USA_R64_SW USA_R64_NW USA_POCI USA_ROCI USA_RMW USA_EYE TOKYO_LAT TOKYO_LON TOKYO_GRADE TOKYO_WIND TOKYO_PRES TOKYO_R50_DIR TOKYO_R50_LONG TOKYO_R50_SHORT TOKYO_R30_DIR TOKYO_R30_LONG TOKYO_R30_SHORT TOKYO_LAND CMA_LAT CMA_LON CMA_CAT CMA_WIND CMA_PRES HKO_LAT HKO_LON HKO_CAT HKO_WIND HKO_PRES NEWDELHI_LAT NEWDELHI_LON NEWDELHI_GRADE NEWDELHI_WIND NEWDELHI_PRES NEWDELHI_CI NEWDELHI_DP NEWDELHI_POCI REUNION_LAT REUNION_LON REUNION_TYPE REUNION_WIND REUNION_PRES REUNION_TNUM REUNION_CI REUNION_RMW REUNION_R34_NE REUNION_R34_SE REUNION_R34_SW REUNION_R34_NW REUNION_R50_NE REUNION_R50_SE REUNION_R50_SW REUNION_R50_NW REUNION_R64_NE REUNION_R64_SE REUNION_R64_SW REUNION_R64_NW BOM_LAT BOM_LON BOM_TYPE BOM_WIND BOM_PRES BOM_TNUM BOM_CI BOM_RMW BOM_R34_NE BOM_R34_SE BOM_R34_SW BOM_R34_NW BOM_R50_NE BOM_R50_SE BOM_R50_SW BOM_R50_NW BOM_R64_NE BOM_R64_SE BOM_R64_SW BOM_R64_NW BOM_ROCI BOM_POCI BOM_EYE BOM_POS_METHOD BOM_PRES_METHOD NADI_LAT NADI_LON NADI_CAT NADI_WIND NADI_PRES WELLINGTON_LAT WELLINGTON_LON WELLINGTON_WIND WELLINGTON_PRES DS824_LAT DS824_LON DS824_STAGE DS824_WIND DS824_PRES TD9636_LAT TD9636_LON TD9636_STAGE TD9636_WIND TD9636_PRES TD9635_LAT TD9635_LON TD9635_WIND TD9635_PRES TD9635_ROCI NEUMANN_LAT NEUMANN_LON NEUMANN_CLASS NEUMANN_WIND NEUMANN_PRES MLC_LAT MLC_LON MLC_CLASS MLC_WIND MLC_PRES USA_GUST BOM_GUST BOM_GUST_PER REUNION_GUST REUNION_GUST_PER USA_SEAHGT USA_SEARAD_NE USA_SEARAD_SE USA_SEARAD_SW USA_SEARAD_NW STORM_SPEED STORM_DIR
1976225N20089 1976 90 NI BB NOT_NAMED 1976-08-12 00:00:00 TS 20.2000 89.3000 main 157 111 O________OO___ jtwc_io IO051976 20.2000 89.3000 -1 20.2000 89.3000 TC 25 20.2000 89.3000 1 11 317
1976225N20089 1976 90 NI BB NOT_NAMED 1976-08-12 03:00:00 TS 20.6145 88.8887 main 111 67 P________PP___ IO051976 20.6101 88.9004 -1 20.6101 88.9004 TC 25 20.6232 88.8654 1 11 317
1976225N20089 1976 90 NI BB NOT_NAMED 1976-08-12 06:00:00 TS 21.0055 88.4844 main 67 33 O________OP___ jtwc_io IO051976 21.0000 88.5000 -1 21.0000 88.5000 TC 25 21.0166 88.4533 1 10 315
1976225N20089 1976 90 NI BB NOT_NAMED 1976-08-12 09:00:00 TS 21.3472 88.1049 main 35 11 P________PP___ IO051976 21.3450 88.1125 -1 21.3450 88.1125 TC 25 21.3516 88.0895 1 9 313
1976225N20089 1976 90 NI BB NOT_NAMED 1976-08-12 12:00:00 TS 21.6000 87.8000 main 11 0 O________OO___ jtwc_io IO051976 21.6000 87.8000 -1 21.6000 87.8000 TC 25 21.6000 87.8000 1 6 311
1976225N20089 1976 90 NI BB NOT_NAMED 1976-08-12 15:00:00 TS 21.7354 87.6176 main 0 0 P________PP___ IO051976 21.7298 87.6272 -1 21.7298 87.6272 TC 25 21.7467 87.5984 1 4 305
1976225N20089 1976 90 NI BB NOT_NAMED 1976-08-12 18:00:00 TS 21.8096 87.4826 main 0 0 O________OP___ jtwc_io IO051976 21.8000 87.5000 -1 21.8000 87.5000 TC 25 21.8289 87.4479 1 3 299
1976225N20089 1976 90 NI BB NOT_NAMED 1976-08-12 21:00:00 TS 21.8838 87.3243 main 0 0 P________PP___ IO051976 21.8774 87.3372 -1 21.8774 87.3372 TC 25 21.8967 87.2985 1 4 298
1976225N20089 1976 90 NI BB NOT_NAMED 1976-08-13 00:00:00 TS 22.0000 87.1000 main 0 0 O________OO___ jtwc_io IO051976 22.0000 87.1000 -1 22.0000 87.1000 TC 25 22.0000 87.1000 1 6 302
1976225N20089 1976 90 NI BB NOT_NAMED 1976-08-13 03:00:00 TS 22.2262 86.7415 main 0 0 P________PP___ IO051976 22.2276 86.7227 -1 22.2276 86.7227 TC 25 22.2234 86.7792 1 9 305
1976225N20089 1976 90 NI BB NOT_NAMED 1976-08-13 06:00:00 TS 22.4951 86.3345 main 0 0 O________OP___ jtwc_io IO051976 22.5000 86.3000 -1 22.5000 86.3000 TC 25 22.4854 86.4036 1 9 307
1976225N20089 1976 90 NI BB NOT_NAMED 1976-08-13 09:00:00 TS 22.7615 85.9620 main 0 0 P________PP___ IO051976 22.7649 85.9425 -1 22.7649 85.9425 TC 25 22.7547 86.0010 1 8 307
1976225N20089 1976 90 NI BB NOT_NAMED 1976-08-13 12:00:00 TS 23.0000 85.6000 main 0 0 O________OO___ jtwc_io IO051976 23.0000 85.6000 -1 23.0000 85.6000 TC 25 23.0000 85.6000 1 8 302
1976225N20089 1976 90 NI BB NOT_NAMED 1976-08-13 15:00:00 TS 23.1681 85.2472 main 0 0 P________PP___ IO051976 23.1649 85.2498 -1 23.1649 85.2498 TC 25 23.1744 85.2421 1 7 295
1976225N20089 1976 90 NI BB NOT_NAMED 1976-08-13 18:00:00 TS 23.3074 84.8972 main 0 0 O________OP___ jtwc_io IO051976 23.3000 84.9000 -1 23.3000 84.9000 TC 25 23.3221 84.8915 1 7 294
1976225N20089 1976 90 NI BB NOT_NAMED 1976-08-13 21:00:00 TS 23.4529 84.5484 main 0 0 P________PP___ IO051976 23.4499 84.5499 -1 23.4499 84.5499 TC 25 23.4588 84.5453 1 7 295
1976225N20089 1976 90 NI BB NOT_NAMED 1976-08-14 00:00:00 TS 23.6000 84.2000 main 0 0 O________OO___ jtwc_io IO051976 23.6000 84.2000 -1 23.6000 84.2000 TC 25 23.6000 84.2000 1 7 295
1976225N20089 1976 90 NI BB NOT_NAMED 1976-08-14 03:00:00 TS 23.7466 83.8591 main 0 0 P________PP___ IO051976 23.7424 83.8499 -1 23.7424 83.8499 TC 25 23.7549 83.8776 1 7 296
1976225N20089 1976 90 NI BB NOT_NAMED 1976-08-14 06:00:00 TS 23.9063 83.5171 main 0 0 O________OP___ jtwc_io IO051976 23.9000 83.5000 -1 23.9000 83.5000 TC 25 23.9189 83.5512 1 7 299
1976225N20089 1976 90 NI BB NOT_NAMED 1976-08-14 09:00:00 TS 24.0944 83.1764 main 0 0 P________PP___ IO051976 24.0923 83.1649 -1 24.0923 83.1649 TC 25 24.0985 83.1993 1 8 301
1976225N20089 1976 90 NI BB NOT_NAMED 1976-08-14 12:00:00 TS 24.3000 82.8000 main 0 0 O________OO___ jtwc_io IO051976 24.3000 82.8000 -1 24.3000 82.8000 TC 25 24.3000 82.8000 1 8 299
1976225N20089 1976 90 NI BB NOT_NAMED 1976-08-14 15:00:00 TS 24.4852 82.3872 main 0 0 P________PP___ IO051976 24.4848 82.3871 -1 24.4848 82.3871 TC 25 24.4862 82.3874 1 9 296
1976225N20089 1976 90 NI BB NOT_NAMED 1976-08-14 18:00:00 TS 24.6999 81.9059 main 0 0 O________OP___ jtwc_io IO051976 24.7000 81.9000 -1 24.7000 81.9000 TC 25 24.6997 81.9176 1 10 297
1976225N20089 1976 90 NI BB NOT_NAMED 1976-08-14 21:00:00 TS 24.9521 81.3805 main 0 0 P________PP___ IO051976 24.9465 81.3886 -1 24.9465 81.3886 TC 25 24.9634 81.3643 1 12 299
1976225N20089 1976 90 NI BB NOT_NAMED 1976-08-15 00:00:00 TS 25.3000 80.7000 main 0 0 O________OO___ jtwc_io IO051976 25.3000 80.7000 -1 25.3000 80.7000 TC 25 25.3000 80.7000 1 17 300
1976225N20089 1976 90 NI BB NOT_NAMED 1976-08-15 03:00:00 TS 25.8228 79.7091 main 0 0 P________PP___ IO051976 25.8288 79.6815 -1 25.8288 79.6815 TC 25 25.8109 79.7644 1 22 301
1976225N20089 1976 90 NI BB NOT_NAMED 1976-08-15 06:00:00 TS 26.3919 78.6448 main 0 0 O________OP___ jtwc_io IO051976 26.4000 78.6000 -1 26.4000 78.6000 TC 25 26.3757 78.7343 1 21 301
1976225N20089 1976 90 NI AS NOT_NAMED 1976-08-15 09:00:00 TS 26.9172 77.6921 main 0 0 P________PP___ IO051976 26.9250 77.6579 -1 26.9250 77.6579 TC 25 26.9017 77.7607 1 17 302
1976225N20089 1976 90 NI AS NOT_NAMED 1976-08-15 12:00:00 TS 27.3000 77.0000 main 0 0 O________OO___ jtwc_io IO051976 27.3000 77.0000 -1 27.3000 77.0000 TC 25 27.3000 77.0000 1 10 301
1976225N20089 1976 90 NI AS NOT_NAMED 1976-08-15 15:00:00 TS 27.4290 76.7473 main 0 0 P________PP___ IO051976 27.4167 76.7939 -1 27.4167 76.7939 TC 25 27.4535 76.6539 1 3 297
1976225N20089 1976 90 NI AS NOT_NAMED 1976-08-15 18:00:00 TS 27.4269 76.7133 main 0 0 O________OP___ jtwc_io IO051976 27.4000 76.8000 -1 27.4000 76.8000 TC 25 27.4806 76.5398 1 1 260
1976225N20089 1976 90 NI AS NOT_NAMED 1976-08-15 21:00:00 TS 27.4142 76.6519 main 0 0 P________PP___ IO051976 27.4000 76.7000 -1 27.4000 76.7000 TC 25 27.4426 76.5559 1 1 254
1976225N20089 1976 90 NI AS NOT_NAMED 1976-08-16 00:00:00 TS 27.4000 76.6000 main 0 0 O________OO___ jtwc_io IO051976 27.4000 76.6000 -1 27.4000 76.6000 TC 25 27.4000 76.6000 1 1 281
1976225N20089 1976 90 NI AS NOT_NAMED 1976-08-16 03:00:00 TS 27.4426 76.4956 main 0 0 P________PP___ IO051976 27.4425 76.4925 -1 27.4425 76.4925 TC 25 27.4428 76.5016 1 2 300
1976225N20089 1976 90 NI AS NOT_NAMED 1976-08-16 06:00:00 TS 27.4975 76.4042 main 0 0 O________OP___ jtwc_io IO051976 27.5000 76.4000 -1 27.5000 76.4000 TC 25 27.4925 76.4126 1 2 307
1976225N20089 1976 90 NI AS NOT_NAMED 1976-08-16 09:00:00 TS 27.5486 76.3374 main 0 0 P________PP___ IO051976 27.5500 76.3350 -1 27.5500 76.3350 TC 25 27.5459 76.3422 1 1 318
1976225N20089 1976 90 NI AS NOT_NAMED 1976-08-16 12:00:00 TS 27.6000 76.3000 main 0 0 O________OO___ jtwc_io IO051976 27.6000 76.3000 -1 27.6000 76.3000 TC 25 27.6000 76.3000 1 1 338
1976225N20089 1976 90 NI AS NOT_NAMED 1976-08-16 15:00:00 TS 27.6527 76.2901 main 0 0 P________PP___ IO051976 27.6500 76.2850 -1 27.6500 76.2850 TC 25 27.6581 76.3002 1 1 0
1976225N20089 1976 90 NI AS NOT_NAMED 1976-08-16 18:00:00 TS 27.7050 76.3091 main 0 0 O________OP___ jtwc_io IO051976 27.7000 76.3000 -1 27.7000 76.3000 TC 25 27.7150 76.3274 1 1 26
1976225N20089 1976 90 NI AS NOT_NAMED 1976-08-16 21:00:00 TS 27.7598 76.3553 main 0 0 P________PP___ IO051976 27.7575 76.3500 -1 27.7575 76.3500 TC 25 27.7644 76.3659 1 1 41
1976225N20089 1976 90 NI AS NOT_NAMED 1976-08-17 00:00:00 TS 27.8000 76.4000 main 0 0 O________OO___ jtwc_io IO051976 27.8000 76.4000 -1 27.8000 76.4000 TC 25 27.8000 76.4000 1 1 46
1976225N20089 1976 90 NI AS NOT_NAMED 1976-08-17 03:00:00 TS 27.7989 76.4007 main 0 0 P________PP___ IO051976 27.8075 76.4075 -1 27.8075 76.4075 TC 25 27.7818 76.3870 1 0 0
1976225N20089 1976 90 NI AS NOT_NAMED 1976-08-17 06:00:00 TS 27.7850 76.3901 main 0 0 O________OP___ jtwc_io IO051976 27.8000 76.4000 -1 27.8000 76.4000 TC 25 27.7549 76.3703 1 0 206
1976225N20089 1976 90 NI AS NOT_NAMED 1976-08-17 09:00:00 TS 27.7635 76.3795 main 0 0 P________PP___ IO051976 27.7700 76.3851 -1 27.7700 76.3851 TC 25 27.7506 76.3684 1 0 0
1976225N20089 1976 90 NI AS NOT_NAMED 1976-08-17 12:00:00 TS 27.8000 76.4000 main 0 0 O________OO___ jtwc_io IO051976 27.8000 76.4000 -1 27.8000 76.4000 TC 25 27.8000 76.4000 1 2 25
1976225N20089 1976 90 NI AS NOT_NAMED 1976-08-17 15:00:00 TS 27.9636 76.4799 main 0 0 P________PP___ IO051976 27.9700 76.4775 -1 27.9700 76.4775 TC 25 27.9507 76.4847 1 4 25
1976225N20089 1976 90 NI AS NOT_NAMED 1976-08-17 18:00:00 TS 28.1850 76.6015 main 0 0 O________OP___ jtwc_io IO051976 28.2000 76.6000 -1 28.2000 76.6000 TC 25 28.1551 76.6046 1 5 28
1976225N20089 1976 90 NI AS NOT_NAMED 1976-08-17 21:00:00 TS 28.3990 76.7441 main 0 0 P________PP___ IO051976 28.4075 76.7425 -1 28.4075 76.7425 TC 25 28.3819 76.7472 1 5 32
1976225N20089 1976 90 NI AS NOT_NAMED 1976-08-18 00:00:00 TS 28.6000 76.9000 main 0 0 O________OO___ jtwc_io IO051976 28.6000 76.9000 -1 28.6000 76.9000 TC 25 28.6000 76.9000 1 5 37
1976225N20089 1976 90 NI AS NOT_NAMED 1976-08-18 03:00:00 TS 28.7639 77.0530 main 0 0 P________PP___ IO051976 28.7575 77.0501 -1 28.7575 77.0501 TC 25 28.7766 77.0590 1 4 41
1976225N20089 1976 90 NI AS NOT_NAMED 1976-08-18 06:00:00 TS 28.9125 77.2075 main 0 0 O________OP___ jtwc_io IO051976 28.9000 77.2000 -1 28.9000 77.2000 TC 25 28.9376 77.2224 1 4 42
1976225N20089 1976 90 NI AS NOT_NAMED 1976-08-18 09:00:00 TS 29.0649 77.3632 main 0 0 P________PP___ IO051976 29.0575 77.3575 -1 29.0575 77.3575 TC 25 29.0798 77.3746 1 4 42
1976225N20089 1976 90 NI AS NOT_NAMED 1976-08-18 12:00:00 TS 29.2000 77.5000 main 0 0 O________OO___ jtwc_io IO051976 29.2000 77.5000 -1 29.2000 77.5000 TC 25 29.2000 77.5000 1 3 42
1976225N20089 1976 90 NI AS NOT_NAMED 1976-08-18 15:00:00 TS 29.3089 77.6108 main 0 0 P________PP___ IO051976 29.3150 77.6225 -1 29.3150 77.6225 TC 25 29.2968 77.5873 1 2 39
1976225N20089 1976 90 NI AS NOT_NAMED 1976-08-18 18:00:00 TS 29.3916 77.6809 main 0 0 O________OP___ jtwc_io IO051976 29.4000 77.7000 -1 29.4000 77.7000 TC 25 29.3749 77.6427 1 2 29
1976225N20089 1976 90 NI AS NOT_NAMED 1976-08-18 21:00:00 TS 29.4519 77.7039 main 0 0 P________PP___ IO051976 29.4575 77.7175 -1 29.4575 77.7175 TC 25 29.4406 77.6767 1 1 14
1976225N20089 1976 90 NI AS NOT_NAMED 1976-08-19 00:00:00 TS 29.5000 77.7000 main 0 O________OO___ jtwc_io IO051976 29.5000 77.7000 -1 29.5000 77.7000 TC 25 29.5000 77.7000 6 1 0

About IBTrACS Database

This database is a web-friendly format of International Best Track Archive for Climate Stewardship (IBTrACS), a global best track data archive curated by NOAA dating back to 1842.

Updated: 2021-10-21